createdAt,value
2023-03-19T00:00:27.022Z,13.60
2023-03-19T00:02:53.735Z,13.70
2023-03-19T00:05:20.446Z,13.70
2023-03-19T00:07:46.988Z,13.70
2023-03-19T00:10:13.606Z,13.70
2023-03-19T00:12:40.713Z,13.80
2023-03-19T00:15:09.020Z,13.80
2023-03-19T00:17:35.741Z,13.70
2023-03-19T00:20:02.539Z,13.70
2023-03-19T00:22:29.135Z,13.70
2023-03-19T00:24:55.790Z,13.60
2023-03-19T00:27:22.324Z,13.60
2023-03-19T00:29:48.857Z,13.60
2023-03-19T00:32:15.509Z,13.60
2023-03-19T00:34:42.750Z,13.60
2023-03-19T00:37:09.343Z,13.60
2023-03-19T00:39:35.987Z,13.60
2023-03-19T00:42:02.604Z,13.60
2023-03-19T00:44:29.197Z,13.60
2023-03-19T00:46:56.180Z,13.60
2023-03-19T00:49:22.725Z,13.60
2023-03-19T00:51:49.378Z,13.60
2023-03-19T00:54:15.882Z,13.70
2023-03-19T00:56:42.499Z,13.70
2023-03-19T00:59:09.127Z,13.60
2023-03-19T01:01:35.812Z,13.60
2023-03-19T01:04:02.444Z,13.60
2023-03-19T01:06:29.001Z,13.60
2023-03-19T01:08:55.949Z,13.50
2023-03-19T01:11:22.497Z,13.50
2023-03-19T01:13:49.109Z,13.50
2023-03-19T01:16:15.836Z,13.50
2023-03-19T01:18:42.461Z,13.40
2023-03-19T01:21:09.181Z,13.30
2023-03-19T01:23:35.871Z,13.30
2023-03-19T01:26:02.890Z,13.30
2023-03-19T01:28:29.482Z,13.30
2023-03-19T01:31:00.774Z,13.30
2023-03-19T01:33:27.866Z,13.30
2023-03-19T01:35:55.189Z,13.30
2023-03-19T01:38:21.977Z,13.30
2023-03-19T01:40:48.832Z,13.30
2023-03-19T01:43:17.306Z,13.40
2023-03-19T01:45:45.230Z,13.40
2023-03-19T01:48:39.086Z,13.40
2023-03-19T01:51:07.589Z,13.30
2023-03-19T01:53:37.914Z,13.30
2023-03-19T01:56:32.390Z,13.30
2023-03-19T01:59:03.990Z,13.20
2023-03-19T02:01:34.138Z,13.20
2023-03-19T02:04:00.875Z,13.30
2023-03-19T02:06:30.088Z,13.30
2023-03-19T02:08:56.860Z,13.30
2023-03-19T02:11:24.282Z,13.20
2023-03-19T02:13:51.154Z,13.20
2023-03-19T02:16:18.046Z,13.20
2023-03-19T02:18:44.849Z,13.20
2023-03-19T02:21:21.860Z,13.20
2023-03-19T02:24:14.118Z,13.20
2023-03-19T02:26:41.719Z,13.20
2023-03-19T02:29:08.569Z,13.20
2023-03-19T02:31:35.429Z,13.10
2023-03-19T02:34:13.923Z,13.10
2023-03-19T02:36:48.869Z,13.10
2023-03-19T02:39:44.862Z,13.00
2023-03-19T02:42:13.214Z,13.00
2023-03-19T02:44:39.847Z,13.00
2023-03-19T02:47:06.533Z,13.00
2023-03-19T02:49:33.094Z,13.00
2023-03-19T02:51:59.801Z,13.10
2023-03-19T02:54:26.364Z,13.10
2023-03-19T02:56:53.228Z,13.20
2023-03-19T02:59:20.959Z,13.20
2023-03-19T03:01:47.623Z,13.20
2023-03-19T03:04:16.393Z,13.20
2023-03-19T03:06:44.057Z,13.20
2023-03-19T03:09:11.843Z,13.20
2023-03-19T03:11:38.614Z,13.30
2023-03-19T03:14:05.148Z,13.20
2023-03-19T03:16:31.760Z,13.20
2023-03-19T03:18:58.653Z,13.20
2023-03-19T03:21:25.462Z,13.20
2023-03-19T03:23:52.317Z,13.20
2023-03-19T03:26:18.871Z,13.20
2023-03-19T03:28:45.481Z,13.20
2023-03-19T03:31:12.140Z,13.20
2023-03-19T03:33:39.060Z,13.20
2023-03-19T03:36:05.998Z,13.20
2023-03-19T03:38:32.819Z,13.20
2023-03-19T03:40:59.370Z,13.10
2023-03-19T03:43:26.800Z,13.10
2023-03-19T03:45:53.524Z,13.10
2023-03-19T03:48:20.210Z,13.10
2023-03-19T03:50:46.831Z,13.10
2023-03-19T03:53:14.279Z,13.10
2023-03-19T03:55:41.363Z,13.10
2023-03-19T03:58:07.912Z,13.00
2023-03-19T04:00:34.879Z,13.00
2023-03-19T04:03:01.632Z,13.00
2023-03-19T04:05:28.262Z,13.00
2023-03-19T04:07:55.927Z,12.90
2023-03-19T04:10:23.427Z,12.90
2023-03-19T04:12:50.663Z,12.90
2023-03-19T04:15:17.227Z,12.90
2023-03-19T04:17:43.760Z,12.90
2023-03-19T04:20:11.036Z,12.90
2023-03-19T04:22:37.660Z,12.80
2023-03-19T04:25:04.933Z,12.80
2023-03-19T04:27:31.490Z,12.80
2023-03-19T04:29:58.361Z,12.80
2023-03-19T04:32:25.228Z,12.70
2023-03-19T04:34:52.296Z,12.70
2023-03-19T04:37:19.845Z,12.70
2023-03-19T04:39:46.910Z,12.70
2023-03-19T04:42:13.500Z,12.70
2023-03-19T04:44:40.652Z,12.70
2023-03-19T04:47:07.297Z,12.70
2023-03-19T04:49:33.871Z,12.60
2023-03-19T04:52:00.796Z,12.60
2023-03-19T04:54:28.255Z,12.60
2023-03-19T04:56:54.881Z,12.60
2023-03-19T04:59:23.129Z,12.60
2023-03-19T05:01:49.961Z,12.60
2023-03-19T05:04:17.597Z,12.50
2023-03-19T05:06:44.310Z,12.50
2023-03-19T05:09:10.831Z,12.50
2023-03-19T05:11:37.552Z,12.50
2023-03-19T05:14:04.369Z,12.50
2023-03-19T05:16:30.978Z,12.50
2023-03-19T05:18:57.865Z,12.50
2023-03-19T05:21:24.727Z,12.50
2023-03-19T05:23:52.601Z,12.50
2023-03-19T05:26:19.295Z,12.50
2023-03-19T05:28:45.894Z,12.50
2023-03-19T05:31:12.449Z,12.50
2023-03-19T05:33:39.012Z,12.50
2023-03-19T05:36:05.929Z,12.50
2023-03-19T05:38:32.490Z,12.60
2023-03-19T05:41:05.035Z,12.60
2023-03-19T05:43:32.495Z,12.60
2023-03-19T05:45:59.281Z,12.60
2023-03-19T05:48:26.451Z,12.60
2023-03-19T05:50:53.170Z,12.60
2023-03-19T05:53:20.489Z,12.50
2023-03-19T05:55:47.218Z,12.50
2023-03-19T05:58:13.870Z,12.50
2023-03-19T06:00:40.482Z,12.40
2023-03-19T06:03:07.275Z,12.40
2023-03-19T06:05:34.059Z,12.30
2023-03-19T06:08:00.817Z,12.40
2023-03-19T06:10:27.668Z,12.40
2023-03-19T06:12:54.249Z,12.40
2023-03-19T06:15:20.989Z,12.40
2023-03-19T06:17:47.552Z,12.40
2023-03-19T06:20:14.304Z,12.50
2023-03-19T06:22:41.203Z,12.50
2023-03-19T06:25:08.250Z,12.50
2023-03-19T06:27:35.065Z,12.50
2023-03-19T06:30:01.629Z,12.50
2023-03-19T06:32:28.131Z,12.60
2023-03-19T06:34:56.138Z,12.50
2023-03-19T06:37:22.682Z,12.50
2023-03-19T06:39:49.633Z,12.50
2023-03-19T06:42:16.947Z,12.50
2023-03-19T06:44:43.548Z,12.50
2023-03-19T06:47:11.446Z,12.50
2023-03-19T06:49:38.054Z,12.50
2023-03-19T06:52:04.768Z,12.50
2023-03-19T06:54:31.592Z,12.50
2023-03-19T06:56:58.494Z,12.50
2023-03-19T06:59:25.790Z,12.60
2023-03-19T07:01:52.599Z,12.60
2023-03-19T07:04:19.467Z,12.60
2023-03-19T07:06:46.412Z,12.70
2023-03-19T07:09:13.023Z,12.70
2023-03-19T07:11:39.581Z,12.70
2023-03-19T07:14:06.268Z,12.70
2023-03-19T07:16:33.017Z,12.70
2023-03-19T07:18:59.622Z,12.80
2023-03-19T07:21:26.210Z,12.80
2023-03-19T07:23:52.829Z,12.80
2023-03-19T07:26:19.496Z,12.90
2023-03-19T07:28:46.128Z,12.90
2023-03-19T07:31:13.097Z,13.00
2023-03-19T07:33:39.759Z,13.10
2023-03-19T07:36:07.111Z,13.20
2023-03-19T07:38:33.685Z,13.20
2023-03-19T07:41:02.647Z,13.30
2023-03-19T07:43:31.119Z,13.30
2023-03-19T07:45:58.430Z,13.40
2023-03-19T07:48:25.048Z,13.50
2023-03-19T07:50:52.047Z,13.70
2023-03-19T07:53:19.209Z,14.00
2023-03-19T07:55:45.887Z,14.40
2023-03-19T07:58:12.450Z,15.40
2023-03-19T08:00:39.136Z,15.60
2023-03-19T08:03:05.944Z,15.70
2023-03-19T08:05:32.498Z,15.50
2023-03-19T08:07:59.103Z,15.20
2023-03-19T08:10:25.748Z,14.90
2023-03-19T08:12:52.379Z,14.80
2023-03-19T08:15:19.155Z,14.80
2023-03-19T08:17:45.818Z,14.80
2023-03-19T08:20:17.970Z,15.00
2023-03-19T08:22:49.225Z,15.20
2023-03-19T08:25:15.882Z,15.70
2023-03-19T08:27:42.732Z,16.50
2023-03-19T08:30:11.156Z,18.40
2023-03-19T08:32:38.047Z,19.90
2023-03-19T08:35:06.083Z,20.40
2023-03-19T08:37:32.777Z,19.90
2023-03-19T08:39:59.320Z,19.70
2023-03-19T08:42:25.950Z,19.30
2023-03-19T08:44:52.555Z,18.80
2023-03-19T08:47:19.076Z,18.50
2023-03-19T08:49:45.664Z,18.20
2023-03-19T08:52:12.374Z,17.80
2023-03-19T08:54:38.940Z,17.40
2023-03-19T08:57:05.956Z,17.20
2023-03-19T08:59:34.181Z,17.40
2023-03-19T09:02:01.451Z,17.50
2023-03-19T09:04:28.814Z,17.40
2023-03-19T09:06:55.817Z,17.50
2023-03-19T09:09:24.196Z,17.60
2023-03-19T09:11:51.078Z,17.90
2023-03-19T09:14:19.716Z,18.40
2023-03-19T09:16:46.389Z,19.30
2023-03-19T09:19:12.916Z,21.00
2023-03-19T09:21:39.718Z,22.10
2023-03-19T09:24:06.674Z,22.70
2023-03-19T09:26:33.328Z,22.70
2023-03-19T09:29:00.000Z,22.60
2023-03-19T09:31:29.424Z,22.00
2023-03-19T09:33:56.269Z,21.10
2023-03-19T09:36:22.844Z,20.40
2023-03-19T09:38:49.500Z,19.70
2023-03-19T09:41:22.148Z,19.40
2023-03-19T09:44:11.827Z,19.00
2023-03-19T09:46:47.189Z,18.80
2023-03-19T09:49:33.339Z,18.30
2023-03-19T09:52:30.319Z,18.10
2023-03-19T09:55:03.563Z,18.10
2023-03-19T09:57:33.086Z,18.10
2023-03-19T09:59:59.632Z,18.20
2023-03-19T10:02:44.132Z,18.70
2023-03-19T10:05:36.468Z,19.70
2023-03-19T10:08:24.782Z,20.90
2023-03-19T10:11:13.215Z,21.50
2023-03-19T10:14:05.508Z,21.60
2023-03-19T10:16:32.384Z,21.70
2023-03-19T10:19:03.298Z,21.40
2023-03-19T10:21:29.760Z,20.90
2023-03-19T10:24:31.727Z,20.20
2023-03-19T10:27:01.500Z,20.00
2023-03-19T10:29:28.426Z,19.70
2023-03-19T10:32:07.607Z,19.40
2023-03-19T10:34:43.000Z,19.20
2023-03-19T10:37:21.467Z,19.00
2023-03-19T10:39:55.513Z,18.70
2023-03-19T10:43:04.037Z,18.70
2023-03-19T10:45:38.642Z,18.70
2023-03-19T10:48:06.382Z,18.70
2023-03-19T10:50:35.045Z,18.90
2023-03-19T10:53:06.789Z,18.90
2023-03-19T10:55:34.283Z,19.00
2023-03-19T10:58:14.791Z,18.90
2023-03-19T11:00:41.644Z,18.60
2023-03-19T11:03:33.249Z,18.50
2023-03-19T11:06:07.599Z,18.50
2023-03-19T11:08:36.606Z,18.50
2023-03-19T11:11:03.839Z,18.50
2023-03-19T11:13:30.937Z,18.50
2023-03-19T11:16:00.518Z,18.50
2023-03-19T11:18:39.085Z,18.50
2023-03-19T11:21:29.154Z,18.30
2023-03-19T11:24:03.795Z,18.00
2023-03-19T11:26:31.184Z,17.90
2023-03-19T11:29:04.072Z,17.80
2023-03-19T11:31:34.205Z,17.70
2023-03-19T11:34:25.216Z,17.60
2023-03-19T11:37:13.992Z,17.60
2023-03-19T11:40:06.729Z,17.50
2023-03-19T11:42:42.689Z,17.50
2023-03-19T11:45:15.061Z,17.50
2023-03-19T11:47:59.750Z,17.40
2023-03-19T11:50:55.923Z,17.40
2023-03-19T11:53:51.514Z,17.40
2023-03-19T11:56:44.673Z,17.30
2023-03-19T11:59:30.232Z,17.30
2023-03-19T12:02:51.351Z,17.40
2023-03-19T12:05:28.112Z,17.50
2023-03-19T12:08:02.127Z,17.50
2023-03-19T12:10:40.677Z,17.40
2023-03-19T12:13:07.150Z,17.20
2023-03-19T12:15:47.093Z,17.20
2023-03-19T12:18:38.815Z,17.10
2023-03-19T12:21:41.164Z,17.20
2023-03-19T12:24:21.747Z,17.20
2023-03-19T12:26:57.130Z,17.10
2023-03-19T12:29:34.352Z,17.10
2023-03-19T12:32:19.635Z,17.00
2023-03-19T12:34:58.675Z,17.00
2023-03-19T12:38:06.464Z,16.90
2023-03-19T12:40:53.224Z,17.00
2023-03-19T12:43:32.519Z,16.90
2023-03-19T12:46:37.908Z,17.00
2023-03-19T12:49:14.778Z,17.00
2023-03-19T12:51:46.580Z,17.00
2023-03-19T12:54:24.166Z,16.90
2023-03-19T12:57:31.034Z,16.90
2023-03-19T13:00:31.850Z,17.00
2023-03-19T13:03:13.246Z,17.00
2023-03-19T13:06:10.822Z,16.90
2023-03-19T13:09:05.030Z,16.80
2023-03-19T13:11:49.144Z,16.70
2023-03-19T13:14:40.509Z,16.70
2023-03-19T13:17:31.129Z,16.60
2023-03-19T13:20:01.363Z,16.50
2023-03-19T13:22:35.535Z,16.40
2023-03-19T13:25:03.271Z,16.50
2023-03-19T13:27:32.436Z,16.50
2023-03-19T13:30:01.317Z,16.40
2023-03-19T13:32:34.630Z,16.40
2023-03-19T13:35:25.946Z,16.30
2023-03-19T13:38:18.480Z,16.30
2023-03-19T13:40:52.600Z,16.20
2023-03-19T13:43:29.056Z,16.20
2023-03-19T13:46:15.712Z,16.10
2023-03-19T13:48:45.575Z,16.10
2023-03-19T13:51:18.094Z,16.00
2023-03-19T13:54:11.566Z,15.90
2023-03-19T13:57:04.134Z,15.80
2023-03-19T13:59:36.028Z,15.70
2023-03-19T14:02:26.202Z,15.60
2023-03-19T14:05:01.987Z,15.50
2023-03-19T14:07:37.582Z,15.50
2023-03-19T14:10:08.851Z,15.40
2023-03-19T14:12:38.752Z,15.30
2023-03-19T14:15:09.116Z,15.20
2023-03-19T14:17:53.395Z,15.20
2023-03-19T14:20:24.694Z,15.00
2023-03-19T14:23:09.632Z,14.80
2023-03-19T14:26:03.326Z,14.70
2023-03-19T14:28:45.041Z,14.60
2023-03-19T14:31:47.235Z,14.40
2023-03-19T14:34:39.360Z,14.30
2023-03-19T14:37:20.783Z,14.20
2023-03-19T14:40:09.532Z,14.00
2023-03-19T14:42:52.588Z,14.00
2023-03-19T14:45:48.324Z,13.90
2023-03-19T14:48:26.017Z,13.90
2023-03-19T14:51:17.651Z,13.80
2023-03-19T14:53:46.381Z,13.60
2023-03-19T14:56:16.241Z,13.50
2023-03-19T14:58:55.563Z,13.30
2023-03-19T15:01:26.808Z,13.20
2023-03-19T15:04:07.901Z,13.10
2023-03-19T15:06:38.520Z,13.00
2023-03-19T15:09:29.764Z,12.90
2023-03-19T15:12:15.006Z,12.90
2023-03-19T15:15:15.575Z,12.80
2023-03-19T15:17:45.325Z,12.70
2023-03-19T15:20:18.543Z,12.60
2023-03-19T15:22:52.982Z,12.60
2023-03-19T15:25:19.758Z,12.60
2023-03-19T15:27:46.610Z,12.50
2023-03-19T15:30:20.179Z,12.50
2023-03-19T15:32:56.729Z,12.50
2023-03-19T15:35:36.785Z,12.60
2023-03-19T15:38:08.753Z,12.60
2023-03-19T15:40:36.742Z,12.50
2023-03-19T15:43:03.891Z,12.50
2023-03-19T15:45:33.709Z,12.50
2023-03-19T15:48:23.165Z,12.50
2023-03-19T15:50:59.137Z,12.50
2023-03-19T15:53:31.384Z,12.50
2023-03-19T15:55:59.867Z,12.50
2023-03-19T15:58:30.214Z,12.60
2023-03-19T16:00:59.478Z,12.70
2023-03-19T16:03:37.656Z,12.70
2023-03-19T16:06:07.865Z,12.70
2023-03-19T16:08:35.242Z,12.70
2023-03-19T16:11:15.379Z,12.60
2023-03-19T16:13:52.529Z,12.50
2023-03-19T16:16:23.490Z,12.50
2023-03-19T16:18:53.380Z,12.50
2023-03-19T16:21:21.973Z,12.50
2023-03-19T16:23:53.702Z,12.50
2023-03-19T16:26:22.036Z,12.50
2023-03-19T16:29:06.137Z,12.60
2023-03-19T16:31:41.390Z,12.60
2023-03-19T16:34:21.313Z,12.70
2023-03-19T16:36:48.320Z,12.70
2023-03-19T16:39:23.807Z,12.80
2023-03-19T16:42:16.794Z,12.80
2023-03-19T16:44:44.302Z,12.80
2023-03-19T16:47:11.688Z,12.70
2023-03-19T16:49:38.264Z,12.70
2023-03-19T16:52:05.434Z,12.70
2023-03-19T16:54:31.947Z,12.70
2023-03-19T16:56:58.459Z,12.70
2023-03-19T16:59:29.331Z,12.70
2023-03-19T17:01:56.115Z,12.70
2023-03-19T17:04:23.839Z,12.70
2023-03-19T17:06:50.398Z,12.50
2023-03-19T17:09:16.887Z,12.20
2023-03-19T17:11:43.662Z,12.00
2023-03-19T17:14:20.883Z,12.00
2023-03-19T17:16:50.550Z,11.90
2023-03-19T17:19:22.050Z,11.90
2023-03-19T17:21:49.396Z,11.90
2023-03-19T17:24:21.876Z,12.00
2023-03-19T17:26:48.538Z,11.90
2023-03-19T17:29:15.245Z,11.80
2023-03-19T17:31:41.996Z,11.70
2023-03-19T17:34:12.472Z,11.70
2023-03-19T17:36:39.137Z,11.70
2023-03-19T17:39:07.110Z,11.80
2023-03-19T17:41:35.346Z,11.80
2023-03-19T17:44:06.605Z,11.80
2023-03-19T17:46:35.416Z,11.70
2023-03-19T17:49:01.943Z,11.60
2023-03-19T17:51:28.670Z,11.70
2023-03-19T17:53:55.343Z,11.70
2023-03-19T17:56:24.961Z,11.70
2023-03-19T17:58:51.921Z,11.60
2023-03-19T18:01:23.215Z,11.60
2023-03-19T18:03:51.083Z,11.50
2023-03-19T18:06:19.318Z,11.30
2023-03-19T18:08:46.353Z,11.30
2023-03-19T18:11:13.472Z,11.20
2023-03-19T18:13:40.843Z,11.10
2023-03-19T18:16:16.401Z,11.10
2023-03-19T18:18:42.943Z,11.20
2023-03-19T18:21:15.991Z,11.20
2023-03-19T18:23:42.907Z,11.30
2023-03-19T18:26:10.399Z,11.30
2023-03-19T18:28:37.025Z,11.20
2023-03-19T18:31:03.827Z,11.20
2023-03-19T18:33:31.071Z,11.30
2023-03-19T18:35:57.956Z,11.30
2023-03-19T18:38:26.068Z,11.30
2023-03-19T18:40:53.197Z,11.20
2023-03-19T18:43:19.844Z,11.20
2023-03-19T18:45:48.276Z,11.30
2023-03-19T18:48:20.758Z,11.40
2023-03-19T18:50:48.293Z,11.50
2023-03-19T18:53:16.170Z,11.60
2023-03-19T18:55:43.301Z,11.60
2023-03-19T18:58:15.447Z,11.60
2023-03-19T19:00:41.940Z,11.60
2023-03-19T19:03:11.129Z,11.60
2023-03-19T19:05:37.604Z,11.60
2023-03-19T19:08:04.224Z,11.50
2023-03-19T19:10:34.697Z,11.50
2023-03-19T19:13:01.928Z,11.50
2023-03-19T19:15:30.359Z,11.50
2023-03-19T19:17:57.659Z,11.60
2023-03-19T19:20:25.788Z,11.70
2023-03-19T19:22:53.024Z,11.60
2023-03-19T19:25:21.375Z,11.60
2023-03-19T19:27:48.830Z,11.50
2023-03-19T19:30:16.210Z,11.40
2023-03-19T19:32:42.762Z,11.30
2023-03-19T19:35:22.939Z,11.30
2023-03-19T19:37:49.840Z,11.20
2023-03-19T19:40:21.048Z,11.20
2023-03-19T19:42:48.812Z,11.20
2023-03-19T19:45:36.476Z,11.30
2023-03-19T19:48:03.895Z,11.30
2023-03-19T19:50:30.490Z,11.30
2023-03-19T19:52:57.842Z,11.40
2023-03-19T19:55:25.822Z,11.40
2023-03-19T19:57:53.739Z,11.40
2023-03-19T20:00:22.327Z,11.40
2023-03-19T20:02:49.492Z,11.40
2023-03-19T20:05:18.244Z,11.40
2023-03-19T20:07:44.756Z,11.40
2023-03-19T20:10:12.688Z,11.30
2023-03-19T20:12:40.103Z,11.30
2023-03-19T20:15:14.189Z,11.30
2023-03-19T20:17:41.279Z,11.40
2023-03-19T20:20:15.171Z,11.40
2023-03-19T20:22:42.270Z,11.40
2023-03-19T20:25:09.032Z,11.40
2023-03-19T20:27:35.700Z,11.40
2023-03-19T20:30:03.124Z,11.30
2023-03-19T20:32:34.418Z,11.30
2023-03-19T20:35:01.188Z,11.30
2023-03-19T20:37:27.883Z,11.30
2023-03-19T20:39:54.347Z,11.20
2023-03-19T20:42:21.161Z,11.30
2023-03-19T20:44:48.468Z,11.30
2023-03-19T20:47:16.669Z,11.20
2023-03-19T20:49:43.621Z,11.20
2023-03-19T20:52:11.933Z,11.20
2023-03-19T20:54:40.899Z,11.20
2023-03-19T20:57:14.799Z,11.20
2023-03-19T20:59:44.325Z,11.20
2023-03-19T21:02:17.906Z,11.30
2023-03-19T21:04:44.744Z,11.40
2023-03-19T21:07:20.388Z,11.40
2023-03-19T21:09:46.861Z,11.40
2023-03-19T21:12:28.521Z,11.40
2023-03-19T21:14:56.320Z,11.20
2023-03-19T21:17:22.976Z,11.10
2023-03-19T21:19:49.798Z,11.10
2023-03-19T21:22:24.042Z,11.20
2023-03-19T21:24:51.036Z,11.20
2023-03-19T21:27:22.322Z,11.30
2023-03-19T21:29:50.082Z,11.20
2023-03-19T21:32:19.648Z,11.20
2023-03-19T21:34:48.606Z,11.20
2023-03-19T21:37:18.654Z,11.10
2023-03-19T21:39:46.176Z,11.10
2023-03-19T21:42:16.911Z,11.10
2023-03-19T21:44:46.718Z,11.10
2023-03-19T21:47:14.423Z,11.00
2023-03-19T21:49:41.007Z,10.90
2023-03-19T21:52:11.196Z,10.80
2023-03-19T21:54:37.833Z,10.70
2023-03-19T21:57:04.474Z,10.70
2023-03-19T21:59:34.129Z,10.60
2023-03-19T22:02:00.624Z,10.50
2023-03-19T22:04:27.145Z,10.40
2023-03-19T22:06:53.661Z,10.50
2023-03-19T22:09:20.192Z,10.50
2023-03-19T22:11:46.713Z,10.40
2023-03-19T22:14:13.395Z,10.40
2023-03-19T22:16:40.226Z,10.40
2023-03-19T22:19:06.722Z,10.40
2023-03-19T22:21:34.314Z,10.30
2023-03-19T22:24:00.952Z,10.40
2023-03-19T22:26:29.412Z,10.40
2023-03-19T22:28:57.312Z,10.30
2023-03-19T22:31:24.230Z,10.30
2023-03-19T22:33:50.973Z,10.30
2023-03-19T22:36:17.530Z,10.20
2023-03-19T22:38:44.884Z,10.20
2023-03-19T22:41:15.145Z,10.20
2023-03-19T22:43:42.097Z,10.30
2023-03-19T22:46:10.285Z,10.30
2023-03-19T22:48:37.281Z,10.30
2023-03-19T22:51:04.279Z,10.30
2023-03-19T22:53:32.227Z,10.40
2023-03-19T22:55:59.432Z,10.40
2023-03-19T22:58:26.190Z,10.40
2023-03-19T23:00:52.872Z,10.30
2023-03-19T23:03:24.544Z,10.30
2023-03-19T23:05:52.639Z,10.20
2023-03-19T23:08:19.231Z,10.20
2023-03-19T23:10:47.132Z,10.20
2023-03-19T23:13:14.810Z,10.20
2023-03-19T23:15:41.907Z,10.10
2023-03-19T23:18:17.302Z,10.00
2023-03-19T23:20:44.395Z,10.00
2023-03-19T23:23:12.109Z,10.10
2023-03-19T23:25:38.673Z,10.20
2023-03-19T23:28:05.485Z,10.20
2023-03-19T23:30:33.301Z,10.20
2023-03-19T23:33:01.255Z,10.20
2023-03-19T23:35:28.708Z,10.30
2023-03-19T23:37:56.335Z,10.30
2023-03-19T23:40:24.452Z,10.30
2023-03-19T23:42:52.204Z,10.40
2023-03-19T23:45:34.270Z,10.50
2023-03-19T23:48:05.865Z,10.50
2023-03-19T23:50:33.118Z,10.50
2023-03-19T23:52:59.880Z,10.60
2023-03-19T23:55:26.682Z,10.60
2023-03-19T23:57:53.329Z,10.40
